Latest Weather Observations for Mount Read

IDT60801

Issued at 10:05 am EST Friday 18 April 2014 (issued every 30 minutes, with the page automatically refreshed every 10 minutes)

About weather observations | Map of weather stations | Latest weather observations for TAS | Other Formats
Station Details ID: 097085 Name: MOUNT READ Lat: -41.84 Lon: 145.54 Height: 1119.5 m
Data from the previous 72 hours. | See also: Recent months at Mount Read
Date/Time
EST
Temp
°C
App
Temp
°C
Dew
Point
Rel
Hum
%
Delta-T
°C
Wind Press
QNH
hPa
Press
MSL
hPa
Rain
since 9 am
mm
Dir
 
Spd
km/h
Gust
km/h
Spd
kts
Gust
kts
18/10:00am 2.8 -2.6 2.7 99 0.0 SSW 20 32 11 17 1010.9 1010.9 1.6
18/09:30am 2.9 -4.3 2.8 99 0.0 SW 30 48 16 26 1010.9 - 1.2
18/09:07am 3.4 -6.2 3.3 99 0.0 SW 43 63 23 34 1010.9 - 0.2
18/09:00am 3.9 -4.9 3.8 99 0.0 SW 39 56 21 30 1011.1 1011.1 11.8
18/08:55am 4.0 -4.4 3.9 99 0.0 SW 37 50 20 27 1010.9 - 11.4
18/08:36am 3.7 -8.5 3.6 99 0.0 SW 57 76 31 41 1010.4 - 9.6
18/08:30am 3.7 -9.3 3.6 99 0.0 SW 61 74 33 40 1010.0 - 9.0
18/08:29am 3.9 -8.7 3.8 99 0.0 SW 59 69 32 37 1010.0 - 8.8
18/08:00am 4.7 -6.0 4.6 99 0.0 W 50 83 27 45 1009.1 1009.1 6.6
18/07:56am 4.8 -5.1 4.7 99 0.0 W 46 65 25 35 1009.5 - 6.0
18/07:55am 5.7 -4.0 5.6 99 0.0 W 46 59 25 32 1009.6 - 5.6
18/07:30am 6.6 0.1 6.5 99 0.0 N 30 41 16 22 1009.0 - 2.0
18/07:00am 6.5 -0.6 6.4 99 0.0 N 33 46 18 25 1009.4 1009.4 1.2
18/06:30am 6.5 0.0 6.4 99 0.0 N 30 39 16 21 1009.8 - 1.2
18/06:07am 6.6 -0.9 6.5 99 0.0 NNW 35 57 19 31 1009.5 - 1.2
18/06:00am 6.8 -0.2 6.7 99 0.0 NNW 33 48 18 26 1009.9 1009.9 1.2
18/05:30am 6.9 -0.5 6.8 99 0.0 NNW 35 56 19 30 1010.3 - 1.2
18/05:00am 6.8 -0.2 6.7 99 0.0 N 33 46 18 25 1010.4 1010.4 1.0
18/04:30am 7.0 -0.7 6.9 99 0.0 N 37 48 20 26 1010.9 - 1.0
18/04:00am 7.1 0.3 7.0 99 0.0 N 32 52 17 28 1011.4 1011.5 0.6
18/03:56am 7.1 0.3 7.0 99 0.0 N 32 52 17 28 1011.4 - 0.6
18/03:30am 7.2 0.8 7.1 99 0.0 NNW 30 44 16 24 1012.1 - 0.2
18/03:24am 7.1 0.3 7.0 99 0.0 N 32 50 17 27 1012.1 - 0.2
18/03:00am 7.2 -0.1 7.1 99 0.0 N 35 50 19 27 1012.2 1012.3 0.2
18/02:30am 7.0 -1.9 6.9 99 0.0 NNW 43 57 23 31 1012.4 - 0.0
18/02:04am 7.2 -0.5 7.1 99 0.0 N 37 56 20 30 1012.8 - 0.0
18/02:00am 7.2 -0.5 7.1 99 0.0 N 37 52 20 28 1012.8 1012.8 0.0
18/01:30am 7.2 -0.1 7.1 99 0.0 N 35 54 19 29 1013.4 - 0.0
18/01:07am 7.1 0.3 7.0 99 0.0 N 32 50 17 27 1013.8 - 0.0
18/01:00am 7.1 -0.2 7.0 99 0.0 N 35 50 19 27 1013.8 1013.9 0.0
18/12:30am 7.0 0.0 6.9 99 0.0 N 33 44 18 24 1014.2 - 0.0
18/12:00am 6.9 0.8 6.8 99 0.0 N 28 39 15 21 1014.8 1014.9 0.0
 
Date/Time
EST
Temp
°C
App
Temp
°C
Dew
Point
Rel
Hum
%
Delta-T
°C
Wind Press
QNH
hPa
Press
MSL
hPa
Rain
since 9 am
mm
Dir
 
Spd
km/h
Gust
km/h
Spd
kts
Gust
kts
17/11:30pm 6.9 0.8 6.8 99 0.0 N 28 35 15 19 1015.1 - 0.0
17/11:00pm 6.9 1.2 6.8 99 0.0 N 26 37 14 20 1015.6 1015.7 0.0
17/10:30pm 7.0 0.6 6.9 99 0.0 N 30 41 16 22 1016.0 - 0.0
17/10:00pm 7.0 1.3 6.9 99 0.0 N 26 39 14 21 1016.6 1016.7 0.0
17/09:30pm 7.0 1.0 6.9 99 0.0 N 28 37 15 20 1016.9 - 0.0
17/09:00pm 6.9 1.2 6.8 99 0.0 N 26 33 14 18 1017.1 1017.3 0.0
17/08:30pm 7.0 1.3 6.9 99 0.0 N 26 32 14 17 1017.1 - 0.0
17/08:00pm 7.3 1.0 7.2 99 0.0 N 30 39 16 21 1017.1 1017.3 0.0
17/07:30pm 7.4 1.5 7.3 99 0.0 N 28 35 15 19 1017.3 - 0.0
17/07:00pm 7.5 2.0 7.4 99 0.0 N 26 35 14 19 1017.6 1017.8 0.0
17/06:30pm 7.5 2.0 7.4 99 0.0 N 26 33 14 18 1017.8 - 0.0
17/06:00pm 7.6 1.3 7.5 99 0.1 N 30 35 16 19 1017.8 1018.0 0.0
17/05:30pm 7.8 1.9 7.7 99 0.1 N 28 37 15 20 1017.8 - 0.0
17/05:00pm 8.0 1.4 7.6 97 0.2 N 32 43 17 23 1017.7 1017.9 0.0
17/04:30pm 8.3 0.6 7.2 93 0.6 N 37 48 20 26 1017.7 - 0.0
17/04:00pm 8.6 1.0 7.7 94 0.5 N 37 48 20 26 1017.6 1017.8 0.0
17/03:30pm 9.1 2.4 7.4 89 0.9 N 32 41 17 22 1017.9 - 0.0
17/03:00pm 9.4 3.1 7.5 88 1.0 N 30 37 16 20 1018.1 1018.3 0.0
17/02:30pm 9.2 2.3 7.2 87 1.0 N 33 41 18 22 1018.5 - 0.0
17/02:00pm 9.3 3.0 7.6 89 0.9 N 30 37 16 20 1018.7 1018.9 0.0
17/01:30pm 9.3 3.7 7.3 87 1.0 N 26 37 14 20 1019.0 - 0.0
17/01:00pm 11.0 5.0 8.8 86 1.2 N 30 41 16 22 1019.2 1019.5 0.0
17/12:30pm 9.6 4.1 9.0 96 0.3 NNE 28 37 15 20 1019.5 - 0.0
17/12:00pm 9.7 4.3 9.6 99 0.1 N 28 39 15 21 1019.9 1020.2 0.0
17/11:30am 8.5 2.4 8.4 99 0.1 N 30 37 16 20 1020.2 - 0.0
17/11:00am 7.7 1.8 7.6 99 0.1 N 28 35 15 19 1020.2 1020.5 0.0
17/10:30am 7.5 1.2 7.4 99 0.0 N 30 39 16 21 1020.1 - 0.0
17/10:00am 7.5 1.6 7.4 99 0.0 N 28 39 15 21 1020.0 1020.3 0.0
17/09:30am 7.4 0.1 7.3 99 0.0 N 35 43 19 23 1019.8 - 0.0
17/09:00am 7.5 -0.5 7.4 99 0.0 N 39 50 21 27 1019.8 1020.1 1.0
17/08:30am 6.7 -1.5 6.6 99 0.0 N 39 48 21 26 1019.7 - 1.0
17/08:00am 6.5 -1.0 6.4 99 0.0 N 35 39 19 21 1019.7 1019.9 1.0
17/07:30am 6.0 -1.0 5.9 99 0.0 N 32 35 17 19 1019.8 - 0.8
17/07:00am 6.1 -0.1 6.0 99 0.0 N 28 33 15 18 1019.7 1019.9 0.6
17/06:30am 6.1 0.2 6.0 99 0.0 N 26 32 14 17 1019.7 - 0.6
17/06:00am 6.1 -0.5 6.0 99 0.0 NNE 30 35 16 19 1019.6 1019.8 0.4
17/05:30am 6.2 -0.4 6.1 99 0.0 N 30 35 16 19 1019.6 - 0.4
17/05:00am 6.0 -0.3 5.9 99 0.0 N 28 37 15 20 1019.7 1019.9 0.4
17/04:30am 6.1 -0.5 6.0 99 0.0 N 30 37 16 20 1019.3 - 0.4
17/04:00am 6.2 -0.8 6.1 99 0.0 N 32 37 17 20 1019.2 1019.5 0.4
17/03:30am 6.2 -0.4 6.1 99 0.0 N 30 37 16 20 1019.3 - 0.4
17/03:00am 6.3 -0.8 6.2 99 0.0 NNE 33 41 18 22 1019.3 1019.6 0.4
17/02:30am 6.3 -1.6 6.2 99 0.0 NNE 37 44 20 24 1019.1 - 0.4
17/02:00am 6.4 -1.1 6.3 99 0.0 N 35 43 19 23 1019.6 1019.8 0.4
17/01:30am 6.1 -0.1 6.0 99 0.0 N 28 33 15 18 1019.9 - 0.2
17/01:00am 6.3 -0.7 6.2 99 0.0 N 32 39 17 21 1019.8 1020.1 0.0
17/12:30am 5.9 -1.3 5.8 99 0.0 N 33 41 18 22 1019.8 - 0.0
17/12:00am 5.9 -1.7 5.8 99 0.0 N 35 39 19 21 1019.8 1020.1 0.0
 
Date/Time
EST
Temp
°C
App
Temp
°C
Dew
Point
Rel
Hum
%
Delta-T
°C
Wind Press
QNH
hPa
Press
MSL
hPa
Rain
since 9 am
mm
Dir
 
Spd
km/h
Gust
km/h
Spd
kts
Gust
kts
16/11:30pm 5.8 -2.6 5.7 99 0.0 N 39 48 21 26 1020.0 - 0.0
16/11:00pm 6.1 -1.1 6.0 99 0.0 NNE 33 43 18 23 1020.0 1020.3 0.0
16/10:30pm 6.0 -1.0 5.9 99 0.0 NNE 32 35 17 19 1020.1 - 0.0
16/10:00pm 6.0 -0.6 5.9 99 0.0 N 30 32 16 17 1020.6 1020.9 0.0
16/09:30pm 6.2 -0.1 5.6 96 0.3 NNE 28 33 15 18 1020.6 - 0.0
16/09:00pm 6.5 -0.2 5.8 95 0.3 NNE 30 37 16 20 1020.2 1020.5 0.0
16/08:30pm 6.3 0.4 5.6 95 0.3 NNE 26 33 14 18 1019.9 - 0.0
16/08:00pm 6.4 1.2 5.4 93 0.5 NNE 22 28 12 15 1020.0 1020.3 0.0
16/07:30pm 6.5 1.6 5.1 91 0.7 N 20 28 11 15 1020.2 - 0.0
16/07:00pm 6.8 1.5 5.0 88 0.8 N 22 26 12 14 1020.3 1020.6 0.0
16/06:30pm 6.9 2.6 5.2 89 0.8 N 17 22 9 12 1020.3 - 0.0
16/06:00pm 7.4 3.1 5.4 87 1.0 N 17 20 9 11 1020.6 1020.9 0.0
16/05:30pm 8.0 3.4 5.6 85 1.2 N 19 20 10 11 1020.5 - 0.0
16/05:00pm 8.7 5.0 6.3 85 1.2 N 15 19 8 10 1020.5 1020.7 0.0
16/04:30pm 9.5 6.2 6.4 81 1.5 N 13 17 7 9 1020.3 - 0.0
16/04:00pm 9.7 6.5 7.0 83 1.4 NNW 13 20 7 11 1020.3 1020.6 0.0
16/03:30pm 10.2 7.2 6.2 76 2.0 N 11 15 6 8 1020.2 - 0.0
16/03:00pm 11.4 8.5 6.7 73 2.4 N 11 19 6 10 1020.3 1020.6 0.0
16/02:30pm 10.1 6.7 6.1 76 2.0 NNE 13 17 7 9 1020.3 - 0.0
16/02:00pm 10.1 6.7 6.1 76 2.0 N 13 19 7 10 1020.5 1020.7 0.0
16/01:30pm 10.4 6.7 6.5 77 1.9 N 15 20 8 11 1020.7 - 0.0
16/01:00pm 10.9 7.3 6.8 76 2.1 N 15 22 8 12 1020.8 1021.1 0.0
16/12:30pm 11.0 6.2 7.3 78 1.9 NNE 22 30 12 16 1021.0 - 0.0
16/12:00pm 10.6 5.4 7.3 80 1.7 NNE 24 32 13 17 1021.2 1021.5 0.0
16/11:30am 8.8 3.8 6.6 86 1.1 NNE 22 30 12 16 1021.6 - 0.0
16/11:00am 8.9 3.5 6.5 85 1.2 NNE 24 33 13 18 1021.6 1021.9 0.0
16/10:30am 8.9 3.3 7.2 89 0.9 N 26 35 14 19 1021.6 - 0.0
16/10:00am 6.7 1.7 6.6 99 0.0 N 22 30 12 16 1021.8 1022.1 0.0
16/09:30am 7.1 2.2 7.0 99 0.0 N 22 30 12 16 1021.9 - 0.0
16/09:00am 6.3 0.5 6.2 99 0.0 N 26 33 14 18 1022.0 1022.3 0.0
16/08:30am 5.5 -0.1 5.4 99 0.0 N 24 32 13 17 1022.1 - 0.0
16/08:00am 6.5 1.1 6.4 99 0.0 N 24 28 13 15 1022.0 1022.3 0.0
16/07:30am 5.8 0.6 5.7 99 0.0 NNE 22 28 12 15 1021.9 - 0.0
16/07:00am 5.1 -0.2 5.0 99 0.0 N 22 28 12 15 1021.8 1022.1 0.0
16/06:30am 5.0 -1.5 4.9 99 0.0 N 28 33 15 18 1021.6 - 0.0
16/06:00am 5.2 -0.5 5.1 99 0.0 N 24 28 13 15 1021.7 1022.0 0.0
16/05:30am 5.3 -1.5 5.2 99 0.0 N 30 35 16 19 1021.6 - 0.0
16/05:00am 5.6 -1.1 5.5 99 0.0 N 30 33 16 18 1021.7 1022.0 0.0
16/04:30am 5.8 -0.9 5.7 99 0.0 N 30 33 16 18 1021.6 - 0.0
16/04:00am 5.7 -0.6 5.6 99 0.0 NNE 28 33 15 18 1021.8 1022.1 0.0
16/03:30am 5.7 -0.6 5.6 99 0.0 N 28 33 15 18 1021.8 - 0.0
16/03:00am 5.9 -0.4 5.8 99 0.0 NNE 28 33 15 18 1021.9 1022.2 0.0
16/02:30am 5.6 -0.7 5.5 99 0.0 N 28 32 15 17 1022.2 - 0.0
16/02:00am 5.7 -0.6 5.6 99 0.0 N 28 35 15 19 1022.6 1022.9 0.0
16/01:30am 5.6 -0.7 5.5 99 0.0 NNE 28 35 15 19 1022.9 - 0.0
16/01:00am 5.6 -1.1 5.5 99 0.0 N 30 33 16 18 1023.1 1023.5 0.0
16/12:30am 5.8 -0.1 5.7 99 0.0 N 26 35 14 19 1023.2 - 0.0
16/12:00am 5.8 -0.5 5.7 99 0.0 N 28 41 15 22 1023.5 1023.8 0.0
 
Date/Time
EST
Temp
°C
App
Temp
°C
Dew
Point
Rel
Hum
%
Delta-T
°C
Wind Press
QNH
hPa
Press
MSL
hPa
Rain
since 9 am
mm
Dir
 
Spd
km/h
Gust
km/h
Spd
kts
Gust
kts
15/11:30pm 6.1 0.2 6.0 99 0.0 NNE 26 35 14 19 1023.7 - 0.0
15/11:00pm 6.4 0.2 6.3 99 0.0 NNE 28 35 15 19 1023.9 1024.3 0.0
15/10:30pm 6.7 1.0 6.6 99 0.0 NNE 26 35 14 19 1024.0 - 0.0
15/10:00pm 6.9 1.6 6.8 99 0.0 N 24 35 13 19 1024.1 1024.5 0.0
15/09:30pm 7.2 2.3 7.1 99 0.0 N 22 32 12 17 1024.2 - 0.0
15/09:00pm 7.1 2.2 7.0 99 0.0 N 22 37 12 20 1024.2 1024.6 0.0
15/08:30pm 7.3 3.0 7.2 99 0.0 N 19 26 10 14 1024.0 - 0.0
15/08:00pm 7.5 3.7 7.4 99 0.0 N 17 22 9 12 1024.1 1024.5 0.0
15/07:30pm 7.7 3.9 7.6 99 0.1 N 17 24 9 13 1024.1 - 0.0
15/07:00pm 8.1 4.4 8.0 99 0.1 N 17 24 9 13 1024.1 1024.5 0.0
15/06:30pm 8.1 5.2 8.0 99 0.1 N 13 19 7 10 1023.9 - 0.0
15/06:00pm 7.9 4.3 6.8 93 0.5 N 15 19 8 10 1023.8 1024.2 0.0
15/05:30pm 8.5 6.0 6.5 87 1.0 N 9 11 5 6 1023.6 - 0.0
15/05:00pm 9.8 7.3 6.7 81 1.5 N 9 13 5 7 1023.4 1023.7 0.0
15/04:30pm 10.1 7.5 6.3 77 1.9 NNW 9 13 5 7 1023.4 - 0.0
15/04:00pm 10.2 7.7 6.4 77 1.9 N 9 13 5 7 1023.5 1023.8 0.0
15/03:30pm 10.4 7.8 6.0 74 2.2 NNE 9 17 5 9 1023.6 - 0.0
15/03:00pm 9.0 6.2 7.1 88 0.9 N 11 19 6 10 1023.8 1024.2 0.0
15/02:30pm 9.8 7.0 7.1 83 1.4 N 11 15 6 8 1023.6 - 0.0
15/02:00pm 10.0 7.7 7.3 83 1.4 N 9 15 5 8 1023.7 1024.1 0.0
15/01:30pm 9.4 6.4 5.8 78 1.8 N 11 17 6 9 1023.8 - 0.0
15/01:00pm 9.7 6.2 5.5 75 2.0 NNW 13 19 7 10 1023.9 1024.3 0.0
15/12:30pm 8.3 5.4 6.3 87 1.0 NNW 11 19 6 10 1024.2 - 0.0
15/12:00pm 8.5 5.6 8.1 97 0.2 N 13 19 7 10 1024.4 1024.7 0.0
15/11:30am 8.5 5.7 8.4 99 0.1 N 13 19 7 10 1024.6 - 0.0
15/11:00am 7.9 5.3 7.8 99 0.1 N 11 17 6 9 1024.7 1025.1 0.0
15/10:30am 7.3 4.9 7.2 99 0.0 N 9 15 5 8 1024.8 - 0.0

Other Formats:

Comma delimited format used in spreadsheet applications
http://www.bom.gov.au/fwo/IDT60801/IDT60801.95952.axf

JavaScript Object Notation format (JSON) in row-major order
http://www.bom.gov.au/fwo/IDT60801/IDT60801.95952.json